sensor_id;sensor_type;location;lat;lon;timestamp;P1;durP1;ratioP1;P2;durP2;ratioP2
18973;SDS011;9621;48.690;9.466;2023-09-30T00:02:21;17.50;;;6.90;;
18973;SDS011;9621;48.690;9.466;2023-09-30T00:04:50;15.88;;;6.03;;
18973;SDS011;9621;48.690;9.466;2023-09-30T00:07:17;16.00;;;6.43;;
18973;SDS011;9621;48.690;9.466;2023-09-30T00:09:45;16.23;;;6.22;;
18973;SDS011;9621;48.690;9.466;2023-09-30T00:12:11;18.65;;;6.13;;
18973;SDS011;9621;48.690;9.466;2023-09-30T00:14:38;14.65;;;5.72;;
18973;SDS011;9621;48.690;9.466;2023-09-30T00:17:05;13.63;;;5.97;;
18973;SDS011;9621;48.690;9.466;2023-09-30T00:19:32;18.00;;;5.55;;
18973;SDS011;9621;48.690;9.466;2023-09-30T00:22:00;13.38;;;5.63;;
18973;SDS011;9621;48.690;9.466;2023-09-30T00:24:28;13.88;;;5.93;;
18973;SDS011;9621;48.690;9.466;2023-09-30T00:26:55;15.38;;;5.57;;
18973;SDS011;9621;48.690;9.466;2023-09-30T00:29:22;16.80;;;6.10;;
18973;SDS011;9621;48.690;9.466;2023-09-30T00:31:49;14.63;;;6.50;;
18973;SDS011;9621;48.690;9.466;2023-09-30T00:34:16;14.00;;;5.68;;
18973;SDS011;9621;48.690;9.466;2023-09-30T00:36:43;15.52;;;6.25;;
18973;SDS011;9621;48.690;9.466;2023-09-30T00:39:11;15.23;;;6.15;;
18973;SDS011;9621;48.690;9.466;2023-09-30T00:41:38;14.55;;;6.13;;
18973;SDS011;9621;48.690;9.466;2023-09-30T00:44:05;13.68;;;5.72;;
18973;SDS011;9621;48.690;9.466;2023-09-30T00:46:35;13.73;;;5.22;;
18973;SDS011;9621;48.690;9.466;2023-09-30T00:49:03;14.27;;;5.78;;
18973;SDS011;9621;48.690;9.466;2023-09-30T00:51:30;16.13;;;5.68;;
18973;SDS011;9621;48.690;9.466;2023-09-30T00:53:58;14.05;;;5.57;;
18973;SDS011;9621;48.690;9.466;2023-09-30T00:56:28;13.63;;;6.03;;
18973;SDS011;9621;48.690;9.466;2023-09-30T00:58:56;14.07;;;5.88;;
18973;SDS011;9621;48.690;9.466;2023-09-30T01:01:23;14.13;;;5.53;;
18973;SDS011;9621;48.690;9.466;2023-09-30T01:03:50;15.65;;;6.10;;
18973;SDS011;9621;48.690;9.466;2023-09-30T01:06:17;13.98;;;5.15;;
18973;SDS011;9621;48.690;9.466;2023-09-30T01:08:44;13.45;;;5.65;;
18973;SDS011;9621;48.690;9.466;2023-09-30T01:11:11;12.93;;;5.10;;
18973;SDS011;9621;48.690;9.466;2023-09-30T01:13:40;14.13;;;5.60;;
18973;SDS011;9621;48.690;9.466;2023-09-30T01:16:08;15.10;;;5.82;;
18973;SDS011;9621;48.690;9.466;2023-09-30T01:18:36;15.10;;;6.03;;
18973;SDS011;9621;48.690;9.466;2023-09-30T01:21:04;13.35;;;5.10;;
18973;SDS011;9621;48.690;9.466;2023-09-30T01:23:33;15.90;;;5.22;;
18973;SDS011;9621;48.690;9.466;2023-09-30T01:26:01;15.32;;;5.65;;
18973;SDS011;9621;48.690;9.466;2023-09-30T01:28:30;12.10;;;5.50;;
18973;SDS011;9621;48.690;9.466;2023-09-30T01:30:57;12.40;;;5.07;;
18973;SDS011;9621;48.690;9.466;2023-09-30T01:33:24;12.32;;;5.20;;
18973;SDS011;9621;48.690;9.466;2023-09-30T01:35:51;14.63;;;5.05;;
18973;SDS011;9621;48.690;9.466;2023-09-30T01:38:18;11.45;;;4.88;;
18973;SDS011;9621;48.690;9.466;2023-09-30T01:40:46;14.75;;;5.45;;
18973;SDS011;9621;48.690;9.466;2023-09-30T01:43:14;17.17;;;6.22;;
18973;SDS011;9621;48.690;9.466;2023-09-30T01:45:41;11.82;;;5.07;;
18973;SDS011;9621;48.690;9.466;2023-09-30T01:48:08;15.70;;;5.38;;
18973;SDS011;9621;48.690;9.466;2023-09-30T01:50:36;13.82;;;5.65;;
18973;SDS011;9621;48.690;9.466;2023-09-30T01:53:03;13.75;;;5.85;;
18973;SDS011;9621;48.690;9.466;2023-09-30T01:55:31;13.77;;;5.50;;
18973;SDS011;9621;48.690;9.466;2023-09-30T01:57:59;11.90;;;5.20;;
18973;SDS011;9621;48.690;9.466;2023-09-30T02:00:27;13.90;;;5.68;;
18973;SDS011;9621;48.690;9.466;2023-09-30T02:02:54;12.27;;;5.10;;
18973;SDS011;9621;48.690;9.466;2023-09-30T02:05:21;12.15;;;4.82;;
18973;SDS011;9621;48.690;9.466;2023-09-30T02:07:49;12.35;;;5.63;;
18973;SDS011;9621;48.690;9.466;2023-09-30T02:10:16;12.00;;;5.68;;
18973;SDS011;9621;48.690;9.466;2023-09-30T02:12:43;11.88;;;5.03;;
18973;SDS011;9621;48.690;9.466;2023-09-30T02:15:12;13.45;;;5.55;;
18973;SDS011;9621;48.690;9.466;2023-09-30T02:17:39;13.35;;;5.50;;
18973;SDS011;9621;48.690;9.466;2023-09-30T02:20:10;15.55;;;5.90;;
18973;SDS011;9621;48.690;9.466;2023-09-30T02:22:41;13.38;;;5.60;;
18973;SDS011;9621;48.690;9.466;2023-09-30T02:25:08;12.93;;;5.03;;
18973;SDS011;9621;48.690;9.466;2023-09-30T02:27:37;15.30;;;5.72;;
18973;SDS011;9621;48.690;9.466;2023-09-30T02:30:06;13.05;;;5.10;;
18973;SDS011;9621;48.690;9.466;2023-09-30T02:32:36;14.15;;;5.20;;
18973;SDS011;9621;48.690;9.466;2023-09-30T02:35:05;12.80;;;5.75;;
18973;SDS011;9621;48.690;9.466;2023-09-30T02:37:32;9.55;;;4.72;;
18973;SDS011;9621;48.690;9.466;2023-09-30T02:40:01;10.38;;;5.35;;
18973;SDS011;9621;48.690;9.466;2023-09-30T02:42:30;12.68;;;4.95;;
18973;SDS011;9621;48.690;9.466;2023-09-30T02:44:59;10.48;;;4.78;;
18973;SDS011;9621;48.690;9.466;2023-09-30T02:47:26;13.05;;;5.18;;
18973;SDS011;9621;48.690;9.466;2023-09-30T02:49:55;11.30;;;4.97;;
18973;SDS011;9621;48.690;9.466;2023-09-30T02:52:23;10.00;;;4.10;;
18973;SDS011;9621;48.690;9.466;2023-09-30T02:54:50;10.50;;;4.95;;
18973;SDS011;9621;48.690;9.466;2023-09-30T02:57:17;11.23;;;4.35;;
18973;SDS011;9621;48.690;9.466;2023-09-30T02:59:44;14.90;;;5.97;;
18973;SDS011;9621;48.690;9.466;2023-09-30T03:02:11;13.50;;;5.22;;
18973;SDS011;9621;48.690;9.466;2023-09-30T03:04:38;12.45;;;5.68;;
18973;SDS011;9621;48.690;9.466;2023-09-30T03:07:06;12.10;;;5.05;;
18973;SDS011;9621;48.690;9.466;2023-09-30T03:09:33;12.05;;;5.43;;
18973;SDS011;9621;48.690;9.466;2023-09-30T03:12:00;11.35;;;4.95;;
18973;SDS011;9621;48.690;9.466;2023-09-30T03:14:29;13.25;;;5.35;;
18973;SDS011;9621;48.690;9.466;2023-09-30T03:16:57;10.80;;;4.50;;
18973;SDS011;9621;48.690;9.466;2023-09-30T03:19:24;11.80;;;4.82;;
18973;SDS011;9621;48.690;9.466;2023-09-30T03:21:50;13.18;;;5.43;;
18973;SDS011;9621;48.690;9.466;2023-09-30T03:24:19;10.77;;;4.70;;
18973;SDS011;9621;48.690;9.466;2023-09-30T03:26:46;10.57;;;4.82;;
18973;SDS011;9621;48.690;9.466;2023-09-30T03:29:13;11.95;;;4.72;;
18973;SDS011;9621;48.690;9.466;2023-09-30T03:31:40;13.27;;;5.13;;
18973;SDS011;9621;48.690;9.466;2023-09-30T03:34:07;9.50;;;4.38;;
18973;SDS011;9621;48.690;9.466;2023-09-30T03:36:33;12.05;;;4.88;;
18973;SDS011;9621;48.690;9.466;2023-09-30T03:39:01;12.40;;;4.55;;
18973;SDS011;9621;48.690;9.466;2023-09-30T03:41:34;12.88;;;5.15;;
18973;SDS011;9621;48.690;9.466;2023-09-30T03:44:02;13.43;;;5.63;;
18973;SDS011;9621;48.690;9.466;2023-09-30T03:46:29;10.68;;;4.22;;
18973;SDS011;9621;48.690;9.466;2023-09-30T03:48:56;14.18;;;5.18;;
18973;SDS011;9621;48.690;9.466;2023-09-30T03:51:24;10.45;;;4.32;;
18973;SDS011;9621;48.690;9.466;2023-09-30T03:53:51;12.13;;;4.45;;
18973;SDS011;9621;48.690;9.466;2023-09-30T03:56:18;9.85;;;4.47;;
18973;SDS011;9621;48.690;9.466;2023-09-30T03:58:48;11.85;;;4.20;;
18973;SDS011;9621;48.690;9.466;2023-09-30T04:01:17;11.25;;;4.32;;
18973;SDS011;9621;48.690;9.466;2023-09-30T04:03:45;11.77;;;4.25;;
18973;SDS011;9621;48.690;9.466;2023-09-30T04:06:12;7.72;;;4.13;;
18973;SDS011;9621;48.690;9.466;2023-09-30T04:08:38;11.80;;;4.80;;
18973;SDS011;9621;48.690;9.466;2023-09-30T04:11:05;10.55;;;4.18;;
18973;SDS011;9621;48.690;9.466;2023-09-30T04:13:32;13.18;;;4.38;;
18973;SDS011;9621;48.690;9.466;2023-09-30T04:16:01;7.97;;;3.53;;
18973;SDS011;9621;48.690;9.466;2023-09-30T04:18:28;11.05;;;4.05;;
18973;SDS011;9621;48.690;9.466;2023-09-30T04:20:55;13.43;;;4.30;;
18973;SDS011;9621;48.690;9.466;2023-09-30T04:23:22;8.20;;;3.83;;
18973;SDS011;9621;48.690;9.466;2023-09-30T04:25:49;8.20;;;3.78;;
18973;SDS011;9621;48.690;9.466;2023-09-30T04:28:16;9.65;;;4.13;;
18973;SDS011;9621;48.690;9.466;2023-09-30T04:30:46;7.70;;;4.22;;
18973;SDS011;9621;48.690;9.466;2023-09-30T04:33:15;7.85;;;3.42;;
18973;SDS011;9621;48.690;9.466;2023-09-30T04:35:43;12.60;;;4.28;;
18973;SDS011;9621;48.690;9.466;2023-09-30T04:38:10;7.30;;;3.70;;
18973;SDS011;9621;48.690;9.466;2023-09-30T04:40:38;8.27;;;3.45;;
18973;SDS011;9621;48.690;9.466;2023-09-30T04:43:05;9.50;;;3.80;;
18973;SDS011;9621;48.690;9.466;2023-09-30T04:45:32;7.65;;;4.03;;
18973;SDS011;9621;48.690;9.466;2023-09-30T04:47:58;8.93;;;4.07;;
18973;SDS011;9621;48.690;9.466;2023-09-30T04:50:28;12.48;;;4.00;;
18973;SDS011;9621;48.690;9.466;2023-09-30T04:52:55;7.82;;;4.05;;
18973;SDS011;9621;48.690;9.466;2023-09-30T04:55:22;9.98;;;4.32;;
18973;SDS011;9621;48.690;9.466;2023-09-30T04:57:50;9.45;;;4.50;;
18973;SDS011;9621;48.690;9.466;2023-09-30T05:00:18;9.57;;;4.20;;
18973;SDS011;9621;48.690;9.466;2023-09-30T05:02:50;9.57;;;3.95;;
18973;SDS011;9621;48.690;9.466;2023-09-30T05:05:17;10.40;;;4.20;;
18973;SDS011;9621;48.690;9.466;2023-09-30T05:07:46;9.43;;;4.50;;
18973;SDS011;9621;48.690;9.466;2023-09-30T05:10:13;9.05;;;4.00;;
18973;SDS011;9621;48.690;9.466;2023-09-30T05:12:41;10.63;;;4.38;;
18973;SDS011;9621;48.690;9.466;2023-09-30T05:15:10;8.32;;;3.88;;
18973;SDS011;9621;48.690;9.466;2023-09-30T05:17:38;8.85;;;3.90;;
18973;SDS011;9621;48.690;9.466;2023-09-30T05:20:05;8.35;;;3.97;;
18973;SDS011;9621;48.690;9.466;2023-09-30T05:22:33;8.75;;;4.30;;
18973;SDS011;9621;48.690;9.466;2023-09-30T05:25:01;9.07;;;3.92;;
18973;SDS011;9621;48.690;9.466;2023-09-30T05:27:28;9.18;;;4.10;;
18973;SDS011;9621;48.690;9.466;2023-09-30T05:29:55;8.68;;;4.07;;
18973;SDS011;9621;48.690;9.466;2023-09-30T05:32:22;10.13;;;4.30;;
18973;SDS011;9621;48.690;9.466;2023-09-30T05:34:51;10.20;;;4.32;;
18973;SDS011;9621;48.690;9.466;2023-09-30T05:37:19;9.82;;;4.30;;
18973;SDS011;9621;48.690;9.466;2023-09-30T05:39:46;7.43;;;4.00;;
18973;SDS011;9621;48.690;9.466;2023-09-30T05:42:15;8.93;;;3.80;;
18973;SDS011;9621;48.690;9.466;2023-09-30T05:44:43;10.18;;;4.22;;
18973;SDS011;9621;48.690;9.466;2023-09-30T05:47:11;7.78;;;3.88;;
18973;SDS011;9621;48.690;9.466;2023-09-30T05:49:38;10.40;;;4.10;;
18973;SDS011;9621;48.690;9.466;2023-09-30T05:52:05;8.88;;;4.03;;
18973;SDS011;9621;48.690;9.466;2023-09-30T05:54:32;9.27;;;4.22;;
18973;SDS011;9621;48.690;9.466;2023-09-30T05:56:59;9.07;;;3.88;;
18973;SDS011;9621;48.690;9.466;2023-09-30T05:59:29;9.80;;;4.65;;
18973;SDS011;9621;48.690;9.466;2023-09-30T06:01:56;9.63;;;4.07;;
18973;SDS011;9621;48.690;9.466;2023-09-30T06:04:24;7.88;;;3.92;;
18973;SDS011;9621;48.690;9.466;2023-09-30T06:06:51;8.35;;;4.00;;
18973;SDS011;9621;48.690;9.466;2023-09-30T06:09:18;9.27;;;4.13;;
18973;SDS011;9621;48.690;9.466;2023-09-30T06:11:50;8.98;;;4.18;;
18973;SDS011;9621;48.690;9.466;2023-09-30T06:14:17;6.05;;;3.50;;
18973;SDS011;9621;48.690;9.466;2023-09-30T06:16:45;8.23;;;4.28;;
18973;SDS011;9621;48.690;9.466;2023-09-30T06:19:12;6.35;;;3.70;;
18973;SDS011;9621;48.690;9.466;2023-09-30T06:21:39;9.65;;;3.97;;
18973;SDS011;9621;48.690;9.466;2023-09-30T06:24:07;8.15;;;3.55;;
18973;SDS011;9621;48.690;9.466;2023-09-30T06:26:34;7.82;;;3.88;;
18973;SDS011;9621;48.690;9.466;2023-09-30T06:29:01;8.00;;;3.90;;
18973;SDS011;9621;48.690;9.466;2023-09-30T06:31:28;8.13;;;3.95;;
18973;SDS011;9621;48.690;9.466;2023-09-30T06:34:03;9.93;;;4.30;;
18973;SDS011;9621;48.690;9.466;2023-09-30T06:36:32;10.32;;;4.25;;
18973;SDS011;9621;48.690;9.466;2023-09-30T06:38:59;9.05;;;3.83;;
18973;SDS011;9621;48.690;9.466;2023-09-30T06:41:30;7.07;;;3.30;;
18973;SDS011;9621;48.690;9.466;2023-09-30T06:43:58;7.85;;;3.80;;
18973;SDS011;9621;48.690;9.466;2023-09-30T06:46:25;7.28;;;3.50;;
18973;SDS011;9621;48.690;9.466;2023-09-30T06:48:52;9.02;;;3.45;;
18973;SDS011;9621;48.690;9.466;2023-09-30T06:51:21;12.40;;;3.70;;
18973;SDS011;9621;48.690;9.466;2023-09-30T06:53:47;9.48;;;3.92;;
18973;SDS011;9621;48.690;9.466;2023-09-30T06:56:14;9.98;;;4.32;;
18973;SDS011;9621;48.690;9.466;2023-09-30T06:58:41;8.90;;;3.92;;
18973;SDS011;9621;48.690;9.466;2023-09-30T07:01:08;9.73;;;4.10;;
18973;SDS011;9621;48.690;9.466;2023-09-30T07:03:40;8.18;;;4.38;;
18973;SDS011;9621;48.690;9.466;2023-09-30T07:06:07;6.90;;;3.80;;
18973;SDS011;9621;48.690;9.466;2023-09-30T07:08:36;7.57;;;3.75;;
18973;SDS011;9621;48.690;9.466;2023-09-30T07:11:02;12.63;;;4.30;;
18973;SDS011;9621;48.690;9.466;2023-09-30T07:13:30;10.30;;;4.00;;
18973;SDS011;9621;48.690;9.466;2023-09-30T07:15:57;9.63;;;4.03;;
18973;SDS011;9621;48.690;9.466;2023-09-30T07:18:24;9.52;;;4.05;;
18973;SDS011;9621;48.690;9.466;2023-09-30T07:20:51;8.05;;;3.78;;
18973;SDS011;9621;48.690;9.466;2023-09-30T07:23:19;7.25;;;3.50;;
18973;SDS011;9621;48.690;9.466;2023-09-30T07:25:47;7.22;;;3.85;;
18973;SDS011;9621;48.690;9.466;2023-09-30T07:28:14;6.57;;;3.65;;
18973;SDS011;9621;48.690;9.466;2023-09-30T07:30:41;9.60;;;3.63;;
18973;SDS011;9621;48.690;9.466;2023-09-30T07:33:09;8.30;;;3.55;;
18973;SDS011;9621;48.690;9.466;2023-09-30T07:35:37;8.80;;;3.50;;
18973;SDS011;9621;48.690;9.466;2023-09-30T07:38:04;9.45;;;3.65;;
18973;SDS011;9621;48.690;9.466;2023-09-30T07:40:31;6.45;;;3.35;;
18973;SDS011;9621;48.690;9.466;2023-09-30T07:43:00;8.73;;;3.60;;
18973;SDS011;9621;48.690;9.466;2023-09-30T07:45:27;6.63;;;3.13;;
18973;SDS011;9621;48.690;9.466;2023-09-30T07:47:54;6.18;;;3.05;;
18973;SDS011;9621;48.690;9.466;2023-09-30T07:50:20;7.63;;;3.45;;
18973;SDS011;9621;48.690;9.466;2023-09-30T07:52:47;4.95;;;3.00;;
18973;SDS011;9621;48.690;9.466;2023-09-30T07:55:15;9.13;;;3.25;;
18973;SDS011;9621;48.690;9.466;2023-09-30T07:57:42;6.45;;;3.13;;
18973;SDS011;9621;48.690;9.466;2023-09-30T08:00:11;9.00;;;3.40;;
18973;SDS011;9621;48.690;9.466;2023-09-30T08:02:42;5.47;;;2.97;;
18973;SDS011;9621;48.690;9.466;2023-09-30T08:05:09;6.18;;;3.70;;
18973;SDS011;9621;48.690;9.466;2023-09-30T08:07:37;6.28;;;3.67;;
18973;SDS011;9621;48.690;9.466;2023-09-30T08:10:04;7.68;;;2.75;;
18973;SDS011;9621;48.690;9.466;2023-09-30T08:12:37;6.60;;;2.67;;
18973;SDS011;9621;48.690;9.466;2023-09-30T08:15:04;7.55;;;2.95;;
18973;SDS011;9621;48.690;9.466;2023-09-30T08:17:34;6.32;;;2.60;;
18973;SDS011;9621;48.690;9.466;2023-09-30T08:20:01;5.90;;;2.28;;
18973;SDS011;9621;48.690;9.466;2023-09-30T08:22:29;8.38;;;3.25;;
18973;SDS011;9621;48.690;9.466;2023-09-30T08:24:56;7.30;;;2.85;;
18973;SDS011;9621;48.690;9.466;2023-09-30T08:27:24;5.40;;;2.92;;
18973;SDS011;9621;48.690;9.466;2023-09-30T08:29:50;4.45;;;2.20;;
18973;SDS011;9621;48.690;9.466;2023-09-30T08:32:18;7.85;;;2.80;;
18973;SDS011;9621;48.690;9.466;2023-09-30T08:34:49;7.70;;;2.63;;
18973;SDS011;9621;48.690;9.466;2023-09-30T08:37:16;6.22;;;3.00;;
18973;SDS011;9621;48.690;9.466;2023-09-30T08:39:43;4.32;;;2.88;;
18973;SDS011;9621;48.690;9.466;2023-09-30T08:42:10;5.63;;;2.80;;
18973;SDS011;9621;48.690;9.466;2023-09-30T08:44:37;6.35;;;2.80;;
18973;SDS011;9621;48.690;9.466;2023-09-30T08:47:05;5.00;;;2.95;;
18973;SDS011;9621;48.690;9.466;2023-09-30T08:49:33;4.28;;;2.53;;
18973;SDS011;9621;48.690;9.466;2023-09-30T08:52:02;5.07;;;2.70;;
18973;SDS011;9621;48.690;9.466;2023-09-30T08:54:31;7.50;;;2.70;;
18973;SDS011;9621;48.690;9.466;2023-09-30T08:56:58;6.55;;;2.67;;
18973;SDS011;9621;48.690;9.466;2023-09-30T08:59:28;9.10;;;2.85;;
18973;SDS011;9621;48.690;9.466;2023-09-30T09:01:55;6.55;;;3.10;;
18973;SDS011;9621;48.690;9.466;2023-09-30T09:04:23;7.85;;;2.97;;
18973;SDS011;9621;48.690;9.466;2023-09-30T09:06:52;3.75;;;2.30;;
18973;SDS011;9621;48.690;9.466;2023-09-30T09:09:21;6.38;;;2.95;;
18973;SDS011;9621;48.690;9.466;2023-09-30T09:11:50;7.03;;;2.65;;
18973;SDS011;9621;48.690;9.466;2023-09-30T09:14:17;5.32;;;2.90;;
18973;SDS011;9621;48.690;9.466;2023-09-30T09:16:50;6.03;;;2.60;;
18973;SDS011;9621;48.690;9.466;2023-09-30T09:19:18;5.60;;;3.10;;
18973;SDS011;9621;48.690;9.466;2023-09-30T09:21:56;6.50;;;3.22;;
18973;SDS011;9621;48.690;9.466;2023-09-30T09:24:28;6.80;;;3.25;;
18973;SDS011;9621;48.690;9.466;2023-09-30T09:27:05;6.80;;;3.03;;
18973;SDS011;9621;48.690;9.466;2023-09-30T09:29:33;6.72;;;2.95;;
18973;SDS011;9621;48.690;9.466;2023-09-30T09:32:10;5.35;;;2.95;;
18973;SDS011;9621;48.690;9.466;2023-09-30T09:34:38;5.35;;;2.78;;
18973;SDS011;9621;48.690;9.466;2023-09-30T09:37:13;7.47;;;3.03;;
18973;SDS011;9621;48.690;9.466;2023-09-30T09:39:49;5.18;;;2.83;;
18973;SDS011;9621;48.690;9.466;2023-09-30T09:42:24;5.85;;;2.63;;
18973;SDS011;9621;48.690;9.466;2023-09-30T09:44:52;6.70;;;3.10;;
18973;SDS011;9621;48.690;9.466;2023-09-30T09:47:22;7.72;;;3.30;;
18973;SDS011;9621;48.690;9.466;2023-09-30T09:49:50;7.95;;;2.97;;
18973;SDS011;9621;48.690;9.466;2023-09-30T09:52:18;5.50;;;2.47;;
18973;SDS011;9621;48.690;9.466;2023-09-30T09:54:45;5.63;;;3.10;;
18973;SDS011;9621;48.690;9.466;2023-09-30T09:57:14;6.57;;;2.97;;
18973;SDS011;9621;48.690;9.466;2023-09-30T09:59:43;7.32;;;2.78;;
18973;SDS011;9621;48.690;9.466;2023-09-30T10:02:13;6.10;;;3.40;;
18973;SDS011;9621;48.690;9.466;2023-09-30T10:04:41;5.15;;;3.15;;
18973;SDS011;9621;48.690;9.466;2023-09-30T10:07:10;6.88;;;3.53;;
18973;SDS011;9621;48.690;9.466;2023-09-30T10:09:52;6.97;;;3.42;;
18973;SDS011;9621;48.690;9.466;2023-09-30T10:12:24;7.18;;;3.15;;
18973;SDS011;9621;48.690;9.466;2023-09-30T10:14:52;9.07;;;3.35;;
18973;SDS011;9621;48.690;9.466;2023-09-30T10:17:19;6.85;;;3.15;;
18973;SDS011;9621;48.690;9.466;2023-09-30T10:20:04;8.18;;;3.47;;
18973;SDS011;9621;48.690;9.466;2023-09-30T10:22:32;5.90;;;3.42;;
18973;SDS011;9621;48.690;9.466;2023-09-30T10:25:00;8.73;;;4.00;;
18973;SDS011;9621;48.690;9.466;2023-09-30T10:27:35;7.47;;;3.47;;
18973;SDS011;9621;48.690;9.466;2023-09-30T10:30:08;5.40;;;3.15;;
18973;SDS011;9621;48.690;9.466;2023-09-30T10:35:44;8.20;;;3.53;;
18973;SDS011;9621;48.690;9.466;2023-09-30T10:41:13;9.43;;;3.65;;
18973;SDS011;9621;48.690;9.466;2023-09-30T10:44:33;9.57;;;4.10;;
18973;SDS011;9621;48.690;9.466;2023-09-30T10:50:04;23.30;;;6.15;;
18973;SDS011;9621;48.690;9.466;2023-09-30T10:53:09;8.88;;;4.38;;
18973;SDS011;9621;48.690;9.466;2023-09-30T10:55:37;20.58;;;4.97;;
18973;SDS011;9621;48.690;9.466;2023-09-30T10:58:07;26.50;;;5.85;;
18973;SDS011;9621;48.690;9.466;2023-09-30T11:00:36;12.07;;;4.90;;
18973;SDS011;9621;48.690;9.466;2023-09-30T11:03:03;8.23;;;4.70;;
18973;SDS011;9621;48.690;9.466;2023-09-30T11:05:31;9.38;;;4.18;;
18973;SDS011;9621;48.690;9.466;2023-09-30T11:07:59;11.15;;;4.93;;
18973;SDS011;9621;48.690;9.466;2023-09-30T11:10:29;8.48;;;4.30;;
18973;SDS011;9621;48.690;9.466;2023-09-30T11:12:57;9.15;;;4.60;;
18973;SDS011;9621;48.690;9.466;2023-09-30T11:15:24;9.50;;;4.47;;
18973;SDS011;9621;48.690;9.466;2023-09-30T11:17:51;10.75;;;5.15;;
18973;SDS011;9621;48.690;9.466;2023-09-30T11:20:18;9.70;;;4.78;;
18973;SDS011;9621;48.690;9.466;2023-09-30T11:22:46;9.45;;;5.03;;
18973;SDS011;9621;48.690;9.466;2023-09-30T11:25:17;9.30;;;4.75;;
18973;SDS011;9621;48.690;9.466;2023-09-30T11:27:45;10.07;;;4.90;;
18973;SDS011;9621;48.690;9.466;2023-09-30T11:30:13;11.52;;;4.95;;
18973;SDS011;9621;48.690;9.466;2023-09-30T11:32:40;10.25;;;5.32;;
18973;SDS011;9621;48.690;9.466;2023-09-30T11:35:10;10.50;;;5.03;;
18973;SDS011;9621;48.690;9.466;2023-09-30T11:37:47;10.13;;;5.22;;
18973;SDS011;9621;48.690;9.466;2023-09-30T11:40:14;14.25;;;5.35;;
18973;SDS011;9621;48.690;9.466;2023-09-30T11:42:42;11.55;;;5.63;;
18973;SDS011;9621;48.690;9.466;2023-09-30T11:45:29;12.00;;;5.80;;
18973;SDS011;9621;48.690;9.466;2023-09-30T11:47:55;11.95;;;5.72;;
18973;SDS011;9621;48.690;9.466;2023-09-30T11:50:25;12.18;;;6.03;;
18973;SDS011;9621;48.690;9.466;2023-09-30T11:52:52;12.05;;;6.15;;
18973;SDS011;9621;48.690;9.466;2023-09-30T11:55:20;11.82;;;5.90;;
18973;SDS011;9621;48.690;9.466;2023-09-30T11:57:48;11.27;;;5.72;;
18973;SDS011;9621;48.690;9.466;2023-09-30T12:00:15;14.15;;;6.20;;
18973;SDS011;9621;48.690;9.466;2023-09-30T12:02:43;11.02;;;5.88;;
18973;SDS011;9621;48.690;9.466;2023-09-30T12:05:10;10.77;;;5.72;;
18973;SDS011;9621;48.690;9.466;2023-09-30T12:07:39;9.63;;;4.90;;
18973;SDS011;9621;48.690;9.466;2023-09-30T12:10:07;12.40;;;5.50;;
18973;SDS011;9621;48.690;9.466;2023-09-30T12:12:35;11.38;;;5.32;;
18973;SDS011;9621;48.690;9.466;2023-09-30T12:15:05;12.65;;;6.03;;
18973;SDS011;9621;48.690;9.466;2023-09-30T12:17:34;11.63;;;5.88;;
18973;SDS011;9621;48.690;9.466;2023-09-30T12:20:02;12.73;;;5.93;;
18973;SDS011;9621;48.690;9.466;2023-09-30T12:22:30;12.40;;;6.18;;
18973;SDS011;9621;48.690;9.466;2023-09-30T12:24:59;13.75;;;5.93;;
18973;SDS011;9621;48.690;9.466;2023-09-30T12:27:26;14.77;;;7.03;;
18973;SDS011;9621;48.690;9.466;2023-09-30T12:29:53;14.13;;;6.63;;
18973;SDS011;9621;48.690;9.466;2023-09-30T12:32:20;15.98;;;6.43;;
18973;SDS011;9621;48.690;9.466;2023-09-30T12:34:48;13.80;;;6.35;;
18973;SDS011;9621;48.690;9.466;2023-09-30T12:37:16;14.18;;;6.80;;
18973;SDS011;9621;48.690;9.466;2023-09-30T12:39:43;13.52;;;6.72;;
18973;SDS011;9621;48.690;9.466;2023-09-30T12:42:11;12.90;;;6.32;;
18973;SDS011;9621;48.690;9.466;2023-09-30T12:44:39;14.23;;;6.25;;
18973;SDS011;9621;48.690;9.466;2023-09-30T12:47:06;13.10;;;6.00;;
18973;SDS011;9621;48.690;9.466;2023-09-30T12:49:33;12.23;;;6.10;;
18973;SDS011;9621;48.690;9.466;2023-09-30T12:51:59;12.15;;;5.57;;
18973;SDS011;9621;48.690;9.466;2023-09-30T12:54:26;11.88;;;5.35;;
18973;SDS011;9621;48.690;9.466;2023-09-30T12:56:53;13.55;;;6.30;;
18973;SDS011;9621;48.690;9.466;2023-09-30T12:59:22;13.88;;;6.63;;
18973;SDS011;9621;48.690;9.466;2023-09-30T13:01:50;12.32;;;6.30;;
18973;SDS011;9621;48.690;9.466;2023-09-30T13:04:17;10.90;;;5.57;;
18973;SDS011;9621;48.690;9.466;2023-09-30T13:06:44;11.82;;;5.63;;
18973;SDS011;9621;48.690;9.466;2023-09-30T13:09:11;12.18;;;5.90;;
18973;SDS011;9621;48.690;9.466;2023-09-30T13:11:38;11.98;;;5.65;;
18973;SDS011;9621;48.690;9.466;2023-09-30T13:14:06;12.18;;;6.00;;
18973;SDS011;9621;48.690;9.466;2023-09-30T13:16:35;12.50;;;6.07;;
18973;SDS011;9621;48.690;9.466;2023-09-30T13:19:02;13.68;;;5.97;;
18973;SDS011;9621;48.690;9.466;2023-09-30T13:21:29;13.40;;;6.25;;
18973;SDS011;9621;48.690;9.466;2023-09-30T13:23:56;10.75;;;5.13;;
18973;SDS011;9621;48.690;9.466;2023-09-30T13:26:23;12.57;;;5.68;;
18973;SDS011;9621;48.690;9.466;2023-09-30T13:28:50;10.40;;;5.20;;
18973;SDS011;9621;48.690;9.466;2023-09-30T13:31:17;12.48;;;5.97;;
18973;SDS011;9621;48.690;9.466;2023-09-30T13:33:45;10.07;;;5.05;;
18973;SDS011;9621;48.690;9.466;2023-09-30T13:36:12;10.63;;;5.13;;
18973;SDS011;9621;48.690;9.466;2023-09-30T13:38:40;12.27;;;5.88;;
18973;SDS011;9621;48.690;9.466;2023-09-30T13:41:06;10.02;;;5.50;;
18973;SDS011;9621;48.690;9.466;2023-09-30T13:43:33;12.10;;;5.32;;
18973;SDS011;9621;48.690;9.466;2023-09-30T13:46:02;11.07;;;5.63;;
18973;SDS011;9621;48.690;9.466;2023-09-30T13:48:31;11.85;;;5.40;;
18973;SDS011;9621;48.690;9.466;2023-09-30T13:51:04;9.00;;;4.78;;
18973;SDS011;9621;48.690;9.466;2023-09-30T13:53:32;12.07;;;5.13;;
18973;SDS011;9621;48.690;9.466;2023-09-30T13:55:59;10.13;;;5.50;;
18973;SDS011;9621;48.690;9.466;2023-09-30T13:58:26;12.15;;;5.07;;
18973;SDS011;9621;48.690;9.466;2023-09-30T14:00:53;10.77;;;5.35;;
18973;SDS011;9621;48.690;9.466;2023-09-30T14:03:21;12.88;;;5.57;;
18973;SDS011;9621;48.690;9.466;2023-09-30T14:05:49;10.23;;;5.05;;
18973;SDS011;9621;48.690;9.466;2023-09-30T14:08:17;10.20;;;5.13;;
18973;SDS011;9621;48.690;9.466;2023-09-30T14:10:44;12.10;;;5.05;;
18973;SDS011;9621;48.690;9.466;2023-09-30T14:13:11;13.38;;;5.38;;
18973;SDS011;9621;48.690;9.466;2023-09-30T14:15:40;8.82;;;4.53;;
18973;SDS011;9621;48.690;9.466;2023-09-30T14:18:06;11.45;;;4.78;;
18973;SDS011;9621;48.690;9.466;2023-09-30T14:20:33;11.40;;;5.32;;
18973;SDS011;9621;48.690;9.466;2023-09-30T14:23:01;9.82;;;4.63;;
18973;SDS011;9621;48.690;9.466;2023-09-30T14:25:29;12.02;;;5.45;;
18973;SDS011;9621;48.690;9.466;2023-09-30T14:27:56;10.82;;;4.85;;
18973;SDS011;9621;48.690;9.466;2023-09-30T14:30:25;11.65;;;5.22;;
18973;SDS011;9621;48.690;9.466;2023-09-30T14:32:52;12.60;;;5.43;;
18973;SDS011;9621;48.690;9.466;2023-09-30T14:35:19;14.35;;;5.15;;
18973;SDS011;9621;48.690;9.466;2023-09-30T14:37:46;16.77;;;5.20;;
18973;SDS011;9621;48.690;9.466;2023-09-30T14:40:13;17.50;;;5.75;;
18973;SDS011;9621;48.690;9.466;2023-09-30T14:42:42;13.55;;;5.55;;
18973;SDS011;9621;48.690;9.466;2023-09-30T14:45:09;10.63;;;5.53;;
18973;SDS011;9621;48.690;9.466;2023-09-30T14:47:37;16.20;;;5.88;;
18973;SDS011;9621;48.690;9.466;2023-09-30T14:50:05;11.73;;;5.60;;
18973;SDS011;9621;48.690;9.466;2023-09-30T14:52:33;9.77;;;5.18;;
18973;SDS011;9621;48.690;9.466;2023-09-30T14:55:00;10.32;;;5.32;;
18973;SDS011;9621;48.690;9.466;2023-09-30T14:57:27;13.57;;;5.40;;
18973;SDS011;9621;48.690;9.466;2023-09-30T14:59:55;10.90;;;4.60;;
18973;SDS011;9621;48.690;9.466;2023-09-30T15:02:24;10.40;;;4.88;;
18973;SDS011;9621;48.690;9.466;2023-09-30T15:04:52;12.70;;;4.88;;
18973;SDS011;9621;48.690;9.466;2023-09-30T15:07:19;10.75;;;5.72;;
18973;SDS011;9621;48.690;9.466;2023-09-30T15:09:46;10.43;;;4.82;;